Greenview, Missouri
Current Conditions -  °F | °C
As of 10:35 PM on Monday 20 Oct 2014 (Local Time) from KH21 Reporting Station
Clear Clear  
Wind Chill: 57°   Ceiling: Unl
Heat Index: 57°   Visibility: 10mi
Dew Point: 46°   Wind: 0mph
Humidity: 67%   Direction: NA
Pressure: 30.07"   Gusts: NA
Location:  37.9635°N, 92.7409°W
Report Text: KH21 210335Z AUTO 00000KT 10SM CLR 14/08 A3007 RMK AO2
Loading
Personal Weather Stations






























Interactive Weather Map
Tropical Storm Tracking
New forecast layout! Learn more

10-Day Weather Forecast

Advertisements
Track Severe Weather on mobile